createdAt,value
2018-05-18T00:01:23.220Z,12.60
2018-05-18T00:03:51.518Z,12.50
2018-05-18T00:06:19.824Z,12.50
2018-05-18T00:08:48.921Z,12.40
2018-05-18T00:11:17.240Z,12.40
2018-05-18T00:13:45.548Z,12.40
2018-05-18T00:16:13.846Z,12.40
2018-05-18T00:18:42.152Z,12.40
2018-05-18T00:21:10.460Z,12.30
2018-05-18T00:23:38.788Z,12.20
2018-05-18T00:26:07.076Z,12.20
2018-05-18T00:28:35.397Z,12.10
2018-05-18T00:31:03.684Z,12.10
2018-05-18T00:33:32.004Z,12.10
2018-05-18T00:36:00.313Z,12.10
2018-05-18T00:38:28.628Z,12.00
2018-05-18T00:40:56.917Z,11.90
2018-05-18T00:43:25.250Z,11.90
2018-05-18T00:45:53.537Z,11.80
2018-05-18T00:48:21.860Z,11.70
2018-05-18T00:50:50.161Z,11.60
2018-05-18T00:53:19.241Z,11.60
2018-05-18T00:55:47.522Z,11.60
2018-05-18T00:58:15.864Z,11.60
2018-05-18T01:00:44.925Z,11.60
2018-05-18T01:03:13.264Z,11.60
2018-05-18T01:05:41.592Z,11.60
2018-05-18T01:08:09.940Z,11.50
2018-05-18T01:10:38.260Z,11.40
2018-05-18T01:13:06.570Z,11.40
2018-05-18T01:15:34.868Z,11.40
2018-05-18T01:18:03.191Z,11.30
2018-05-18T01:20:31.507Z,11.40
2018-05-18T01:23:00.617Z,11.30
2018-05-18T01:25:28.939Z,11.30
2018-05-18T01:27:57.253Z,11.20
2018-05-18T01:30:25.548Z,11.20
2018-05-18T01:32:53.865Z,11.10
2018-05-18T01:35:22.148Z,11.00
2018-05-18T01:37:50.502Z,11.00
2018-05-18T01:40:18.810Z,10.90
2018-05-18T01:42:47.153Z,10.80
2018-05-18T01:45:16.212Z,10.90
2018-05-18T01:47:44.533Z,10.90
2018-05-18T01:50:12.819Z,10.90
2018-05-18T01:52:41.127Z,10.80
2018-05-18T01:55:09.415Z,10.80
2018-05-18T01:57:37.741Z,10.80
2018-05-18T02:00:06.803Z,10.80
2018-05-18T02:02:35.105Z,10.80
2018-05-18T02:05:04.188Z,10.90
2018-05-18T02:07:32.491Z,10.80
2018-05-18T02:10:00.820Z,10.90
2018-05-18T02:12:29.916Z,10.90
2018-05-18T02:14:58.237Z,10.90
2018-05-18T02:17:26.576Z,10.80
2018-05-18T02:19:54.896Z,10.80
2018-05-18T02:22:23.183Z,10.80
2018-05-18T02:24:51.507Z,10.80
2018-05-18T02:27:19.797Z,10.80
2018-05-18T02:29:48.116Z,10.70
2018-05-18T02:32:16.408Z,10.70
2018-05-18T02:34:44.764Z,10.50
2018-05-18T02:37:13.059Z,10.30
2018-05-18T02:39:41.401Z,10.20
2018-05-18T02:42:10.465Z,10.30
2018-05-18T02:44:38.786Z,10.30
2018-05-18T02:47:07.837Z,10.40
2018-05-18T02:49:36.153Z,10.40
2018-05-18T02:52:05.221Z,10.40
2018-05-18T02:54:33.537Z,10.40
2018-05-18T02:57:01.872Z,10.50
2018-05-18T02:59:30.192Z,10.50
2018-05-18T03:01:58.477Z,10.50
2018-05-18T03:04:26.829Z,10.50
2018-05-18T03:06:55.901Z,10.50
2018-05-18T03:09:24.229Z,10.50
2018-05-18T03:11:52.535Z,10.40
2018-05-18T03:14:20.869Z,10.30
2018-05-18T03:16:49.200Z,10.20
2018-05-18T03:19:17.514Z,10.10
2018-05-18T03:21:46.589Z,10.20
2018-05-18T03:24:14.916Z,10.20
2018-05-18T03:26:43.204Z,10.20
2018-05-18T03:29:11.520Z,10.20
2018-05-18T03:31:39.813Z,10.20
2018-05-18T03:34:08.141Z,10.20
2018-05-18T03:36:36.479Z,10.20
2018-05-18T03:39:05.548Z,10.10
2018-05-18T03:41:34.684Z,10.10
2018-05-18T03:44:03.165Z,10.10
2018-05-18T03:46:31.523Z,10.20
2018-05-18T03:49:00.704Z,10.00
2018-05-18T03:51:29.045Z,10.00
2018-05-18T03:53:57.416Z,10.00
2018-05-18T03:56:25.815Z,10.00
2018-05-18T03:58:54.201Z,10.00
2018-05-18T04:04:36.231Z,10.00
2018-05-18T04:07:16.264Z,10.00
2018-05-18T04:09:44.608Z,10.00
2018-05-18T04:12:12.900Z,10.10
2018-05-18T04:14:41.236Z,10.10
2018-05-18T04:17:09.525Z,10.10
2018-05-18T04:19:38.625Z,10.20
2018-05-18T04:22:07.686Z,10.10
2018-05-18T04:24:36.003Z,10.10
2018-05-18T04:27:05.072Z,10.20
2018-05-18T04:29:34.171Z,10.20
2018-05-18T04:32:03.233Z,10.10
2018-05-18T04:34:31.543Z,10.10
2018-05-18T04:36:59.818Z,10.10
2018-05-18T04:39:28.108Z,10.00
2018-05-18T04:41:57.227Z,10.10
2018-05-18T04:44:25.524Z,10.10
2018-05-18T04:46:53.862Z,10.10
2018-05-18T04:49:22.184Z,10.20
2018-05-18T04:51:50.515Z,10.20
2018-05-18T04:54:19.565Z,10.20
2018-05-18T04:56:47.903Z,10.20
2018-05-18T04:59:16.200Z,10.30
2018-05-18T05:01:44.536Z,10.30
2018-05-18T05:04:12.816Z,10.40
2018-05-18T05:06:41.901Z,10.40
2018-05-18T05:09:10.179Z,10.30
2018-05-18T05:11:38.503Z,10.40
2018-05-18T05:14:06.858Z,10.40
2018-05-18T05:16:35.238Z,10.50
2018-05-18T05:19:03.556Z,10.50
2018-05-18T05:21:31.883Z,10.60
2018-05-18T05:24:00.944Z,10.70
2018-05-18T05:26:29.256Z,10.60
2018-05-18T05:28:58.324Z,10.70
2018-05-18T05:31:26.645Z,10.70
2018-05-18T05:33:54.939Z,10.70
2018-05-18T05:36:23.264Z,10.80
2018-05-18T05:38:51.570Z,10.90
2018-05-18T05:41:20.723Z,11.00
2018-05-18T05:43:49.016Z,10.90
2018-05-18T05:46:17.352Z,11.00
2018-05-18T05:48:45.655Z,11.10
2018-05-18T05:51:13.997Z,11.20
2018-05-18T05:53:42.309Z,11.30
2018-05-18T05:56:10.633Z,11.40
2018-05-18T05:58:38.928Z,11.50
2018-05-18T06:01:07.248Z,11.60
2018-05-18T06:03:35.558Z,11.70
2018-05-18T06:06:04.649Z,11.80
2018-05-18T06:08:33.721Z,11.80
2018-05-18T06:11:02.032Z,11.80
2018-05-18T06:13:30.340Z,11.90
2018-05-18T06:15:58.662Z,12.00
2018-05-18T06:18:26.987Z,12.00
2018-05-18T06:20:55.329Z,12.10
2018-05-18T06:23:23.686Z,12.10
2018-05-18T06:25:52.009Z,12.10
2018-05-18T06:28:20.329Z,12.20
2018-05-18T06:30:48.622Z,12.20
2018-05-18T06:33:17.005Z,12.30
2018-05-18T06:35:46.130Z,12.40
2018-05-18T06:38:14.537Z,12.40
2018-05-18T06:40:42.904Z,12.50
2018-05-18T06:43:11.324Z,12.50
2018-05-18T06:45:39.621Z,12.60
2018-05-18T06:48:07.941Z,12.60
2018-05-18T06:50:36.266Z,12.70
2018-05-18T06:53:05.424Z,12.70
2018-05-18T06:55:33.757Z,12.70
2018-05-18T06:58:02.941Z,12.70
2018-05-18T07:00:31.320Z,12.80
2018-05-18T07:02:59.720Z,12.70
2018-05-18T07:05:28.885Z,12.80
2018-05-18T07:07:58.202Z,12.90
2018-05-18T07:10:26.639Z,12.90
2018-05-18T07:12:55.748Z,13.00
2018-05-18T07:15:24.908Z,13.10
2018-05-18T07:17:53.292Z,13.10
2018-05-18T07:20:21.674Z,13.10
2018-05-18T07:22:50.026Z,13.10
2018-05-18T07:25:18.333Z,13.10
2018-05-18T07:27:46.680Z,13.20
2018-05-18T07:30:14.969Z,13.10
2018-05-18T07:32:44.080Z,13.30
2018-05-18T07:35:12.424Z,13.20
2018-05-18T07:37:41.525Z,13.30
2018-05-18T07:40:09.812Z,13.30
2018-05-18T07:42:38.907Z,13.40
2018-05-18T07:45:07.968Z,13.40
2018-05-18T07:47:36.284Z,13.30
2018-05-18T07:50:05.434Z,13.30
2018-05-18T07:52:34.463Z,13.30
2018-05-18T07:55:03.551Z,13.30
2018-05-18T07:57:31.891Z,13.20
2018-05-18T08:00:00.198Z,13.30
2018-05-18T08:02:28.541Z,13.40
2018-05-18T08:04:56.846Z,13.50
2018-05-18T08:07:25.176Z,13.70
2018-05-18T08:09:53.515Z,13.90
2018-05-18T08:12:21.848Z,13.90
2018-05-18T08:14:50.184Z,14.00
2018-05-18T08:17:18.537Z,13.90
2018-05-18T08:19:46.848Z,13.90
2018-05-18T08:22:15.909Z,14.30
2018-05-18T08:24:44.263Z,14.30
2018-05-18T08:27:23.590Z,14.40
2018-05-18T08:29:51.904Z,14.50
2018-05-18T08:32:20.252Z,14.70
2018-05-18T08:34:48.605Z,14.80
2018-05-18T08:37:17.665Z,14.90
2018-05-18T08:39:46.016Z,14.90
2018-05-18T08:42:14.313Z,15.00
2018-05-18T08:44:43.409Z,15.10
2018-05-18T08:47:11.709Z,15.10
2018-05-18T08:49:40.828Z,15.10
2018-05-18T08:52:09.148Z,15.10
2018-05-18T08:54:37.488Z,15.20
2018-05-18T08:57:05.830Z,15.30
2018-05-18T08:59:34.170Z,15.40
2018-05-18T09:02:02.472Z,15.40
2018-05-18T09:04:30.809Z,15.50
2018-05-18T09:06:59.117Z,15.50
2018-05-18T09:09:27.455Z,15.60
2018-05-18T09:11:55.764Z,15.70
2018-05-18T09:14:24.879Z,15.70
2018-05-18T09:16:53.198Z,15.70
2018-05-18T09:19:21.529Z,15.70
2018-05-18T09:21:49.872Z,15.70
2018-05-18T09:24:18.220Z,15.80
2018-05-18T09:26:47.279Z,16.00
2018-05-18T09:29:15.628Z,16.00
2018-05-18T09:31:43.972Z,16.10
2018-05-18T09:34:13.088Z,16.10
2018-05-18T09:36:41.396Z,16.10
2018-05-18T09:39:09.801Z,16.30
2018-05-18T09:41:38.126Z,16.40
2018-05-18T09:44:06.460Z,16.50
2018-05-18T09:46:34.781Z,16.50
2018-05-18T09:49:03.127Z,16.50
2018-05-18T09:51:31.461Z,16.30
2018-05-18T09:53:59.801Z,16.30
2018-05-18T09:56:28.103Z,16.40
2018-05-18T09:58:56.440Z,16.50
2018-05-18T10:01:24.744Z,16.60
2018-05-18T10:03:53.089Z,16.70
2018-05-18T10:06:21.382Z,16.80
2018-05-18T10:08:50.447Z,17.10
2018-05-18T10:11:18.783Z,17.00
2018-05-18T10:13:47.080Z,17.10
2018-05-18T10:16:15.471Z,17.20
2018-05-18T10:18:43.791Z,17.30
2018-05-18T10:21:12.881Z,17.50
2018-05-18T10:23:41.945Z,17.50
2018-05-18T10:26:10.264Z,17.50
2018-05-18T10:28:38.614Z,17.60
2018-05-18T10:31:06.948Z,17.60
2018-05-18T10:33:35.257Z,17.70
2018-05-18T10:36:03.597Z,17.70
2018-05-18T10:38:32.265Z,17.80
2018-05-18T10:41:00.599Z,17.80
2018-05-18T10:43:28.940Z,17.80
2018-05-18T10:45:57.289Z,17.80
2018-05-18T10:48:26.354Z,18.00
2018-05-18T10:50:54.708Z,18.00
2018-05-18T10:53:23.010Z,18.10
2018-05-18T10:55:51.356Z,18.20
2018-05-18T10:58:19.715Z,18.20
2018-05-18T11:00:47.977Z,18.20
2018-05-18T11:03:17.124Z,18.30
2018-05-18T11:05:45.404Z,18.30
2018-05-18T11:08:13.693Z,18.30
2018-05-18T11:10:42.047Z,18.30
2018-05-18T11:13:11.104Z,18.50
2018-05-18T11:15:40.220Z,18.60
2018-05-18T11:18:08.515Z,18.60
2018-05-18T11:20:36.857Z,18.60
2018-05-18T11:23:05.950Z,18.60
2018-05-18T11:25:35.071Z,18.70
2018-05-18T11:28:03.421Z,18.70
2018-05-18T11:30:31.813Z,18.70
2018-05-18T11:33:00.133Z,18.60
2018-05-18T11:35:28.533Z,18.70
2018-05-18T11:37:56.944Z,18.70
2018-05-18T11:40:25.331Z,18.60
2018-05-18T11:42:53.680Z,18.60
2018-05-18T11:45:22.042Z,18.70
2018-05-18T11:47:50.446Z,18.80
2018-05-18T11:50:19.653Z,19.00
2018-05-18T11:52:48.031Z,18.90
2018-05-18T11:55:16.433Z,18.80
2018-05-18T11:57:44.781Z,18.80
2018-05-18T12:00:13.888Z,18.80
2018-05-18T12:02:43.033Z,18.90
2018-05-18T12:05:11.461Z,18.90
2018-05-18T12:07:39.860Z,19.00
2018-05-18T12:10:08.205Z,19.10
2018-05-18T12:12:37.376Z,19.40
2018-05-18T12:15:06.474Z,19.50
2018-05-18T12:17:34.836Z,19.50
2018-05-18T12:20:03.143Z,19.50
2018-05-18T12:22:31.456Z,19.60
2018-05-18T12:25:00.518Z,19.80
2018-05-18T12:27:28.848Z,19.80
2018-05-18T12:29:57.136Z,19.90
2018-05-18T12:32:25.454Z,19.90
2018-05-18T12:34:53.809Z,20.00
2018-05-18T12:37:22.905Z,20.00
2018-05-18T12:39:51.199Z,20.00
2018-05-18T12:42:19.520Z,20.00
2018-05-18T12:44:47.841Z,20.10
2018-05-18T12:47:16.169Z,20.10
2018-05-18T12:49:44.471Z,20.20
2018-05-18T12:52:12.803Z,20.20
2018-05-18T12:54:41.113Z,20.30
2018-05-18T12:57:09.428Z,20.30
2018-05-18T12:59:37.724Z,20.30
2018-05-18T13:02:06.082Z,20.30
2018-05-18T13:04:34.372Z,20.30
2018-05-18T13:07:02.721Z,20.40
2018-05-18T13:09:31.048Z,20.40
2018-05-18T13:12:00.176Z,20.50
2018-05-18T13:14:28.598Z,20.50
2018-05-18T13:16:57.034Z,20.60
2018-05-18T13:19:25.406Z,20.70
2018-05-18T13:21:54.523Z,20.90
2018-05-18T13:24:22.899Z,20.90
2018-05-18T13:26:51.275Z,21.00
2018-05-18T13:29:19.671Z,21.10
2018-05-18T13:31:48.042Z,21.20
2018-05-18T13:34:16.479Z,21.30
2018-05-18T13:36:44.821Z,21.40
2018-05-18T13:39:13.200Z,21.50
2018-05-18T13:41:42.298Z,21.70
2018-05-18T13:44:10.726Z,21.70
2018-05-18T13:46:39.085Z,21.80
2018-05-18T13:49:07.432Z,21.90
2018-05-18T13:51:35.765Z,22.00
2018-05-18T13:54:04.185Z,22.00
2018-05-18T13:56:32.543Z,22.10
2018-05-18T13:59:01.021Z,22.10
2018-05-18T14:01:29.401Z,22.00
2018-05-18T14:03:57.809Z,21.80
2018-05-18T14:06:26.163Z,21.90
2018-05-18T14:08:54.552Z,22.00
2018-05-18T14:11:22.924Z,22.20
2018-05-18T14:13:51.295Z,22.40
2018-05-18T14:16:19.664Z,22.40
2018-05-18T14:18:48.041Z,22.50
2018-05-18T14:21:16.478Z,22.50
2018-05-18T14:23:44.912Z,22.50
2018-05-18T14:26:13.237Z,22.60
2018-05-18T14:28:41.610Z,22.70
2018-05-18T14:31:10.017Z,22.80
2018-05-18T14:33:38.403Z,22.90
2018-05-18T14:36:06.762Z,23.00
2018-05-18T14:38:35.160Z,23.10
2018-05-18T14:41:04.289Z,23.10
2018-05-18T14:43:32.643Z,23.10
2018-05-18T14:46:01.030Z,23.20
2018-05-18T14:48:29.428Z,23.30
2018-05-18T14:50:57.788Z,23.30
2018-05-18T14:53:26.209Z,23.30
2018-05-18T14:55:54.567Z,23.50
2018-05-18T14:58:23.030Z,23.70
2018-05-18T15:00:51.392Z,23.90
2018-05-18T15:03:20.597Z,23.70
2018-05-18T15:05:49.750Z,23.40
2018-05-18T15:08:18.188Z,23.40
2018-05-18T15:10:46.576Z,23.20
2018-05-18T15:13:14.973Z,23.30
2018-05-18T15:15:43.346Z,23.30
2018-05-18T15:18:11.707Z,23.40
2018-05-18T15:20:40.095Z,23.40
2018-05-18T15:23:08.431Z,23.40
2018-05-18T15:25:37.548Z,23.40
2018-05-18T15:28:05.908Z,23.40
2018-05-18T15:30:35.097Z,23.40
2018-05-18T15:33:04.273Z,23.70
2018-05-18T15:35:33.505Z,23.80
2018-05-18T15:38:01.871Z,23.70
2018-05-18T15:40:30.193Z,23.70
2018-05-18T15:42:58.484Z,23.70
2018-05-18T15:45:26.867Z,23.70
2018-05-18T15:47:55.164Z,23.80
2018-05-18T15:50:23.505Z,23.90
2018-05-18T15:52:51.797Z,23.90
2018-05-18T15:55:20.116Z,24.00
2018-05-18T15:57:48.480Z,24.10
2018-05-18T16:00:17.589Z,24.20
2018-05-18T16:02:45.876Z,24.20
2018-05-18T16:05:14.189Z,24.30
2018-05-18T16:07:42.497Z,24.30
2018-05-18T16:10:10.852Z,24.40
2018-05-18T16:12:39.141Z,24.40
2018-05-18T16:15:07.492Z,24.50
2018-05-18T16:17:35.820Z,24.60
2018-05-18T16:20:04.205Z,24.80
2018-05-18T16:22:32.505Z,24.80
2018-05-18T16:25:00.894Z,24.60
2018-05-18T16:27:29.248Z,24.10
2018-05-18T16:29:57.567Z,23.80
2018-05-18T16:32:25.880Z,23.40
2018-05-18T16:34:55.007Z,23.20
2018-05-18T16:37:23.291Z,23.20
2018-05-18T16:39:52.383Z,23.60
2018-05-18T16:42:21.445Z,23.70
2018-05-18T16:44:49.765Z,23.70
2018-05-18T16:47:18.906Z,23.70
2018-05-18T16:49:47.234Z,23.60
2018-05-18T16:52:16.320Z,23.50
2018-05-18T16:54:45.425Z,23.50
2018-05-18T16:57:13.772Z,23.50
2018-05-18T16:59:42.105Z,23.50
2018-05-18T17:02:10.480Z,23.60
2018-05-18T17:04:38.776Z,23.50
2018-05-18T17:07:07.094Z,23.40
2018-05-18T17:09:35.417Z,23.10
2018-05-18T17:12:03.736Z,22.90
2018-05-18T17:14:32.027Z,22.60
2018-05-18T17:17:00.393Z,22.40
2018-05-18T17:19:28.683Z,22.30
2018-05-18T17:21:57.015Z,22.20
2018-05-18T17:24:25.313Z,22.10
2018-05-18T17:26:53.629Z,22.00
2018-05-18T17:29:21.904Z,21.90
2018-05-18T17:31:50.228Z,21.60
2018-05-18T17:34:18.520Z,21.30
2018-05-18T17:36:46.837Z,21.10
2018-05-18T17:39:15.122Z,20.90
2018-05-18T17:41:43.441Z,20.70
2018-05-18T17:44:11.755Z,20.50
2018-05-18T17:46:40.084Z,20.40
2018-05-18T17:49:08.381Z,20.30
2018-05-18T17:51:36.688Z,20.30
2018-05-18T17:54:04.985Z,20.20
2018-05-18T17:56:33.293Z,20.20
2018-05-18T17:59:01.606Z,20.20
2018-05-18T18:01:29.946Z,20.10
2018-05-18T18:03:58.224Z,20.00
2018-05-18T18:06:26.556Z,20.00
2018-05-18T18:08:54.861Z,19.90
2018-05-18T18:11:23.940Z,19.90
2018-05-18T18:13:52.232Z,19.90
2018-05-18T18:16:21.300Z,19.90
2018-05-18T18:18:49.617Z,19.80
2018-05-18T18:21:17.932Z,19.90
2018-05-18T18:23:46.215Z,19.90
2018-05-18T18:26:14.585Z,19.80
2018-05-18T18:28:42.891Z,19.70
2018-05-18T18:31:11.266Z,19.60
2018-05-18T18:33:39.552Z,19.40
2018-05-18T18:36:07.950Z,19.30
2018-05-18T18:38:36.200Z,19.10
2018-05-18T18:41:04.528Z,18.90
2018-05-18T18:43:32.846Z,18.70
2018-05-18T18:46:01.193Z,18.50
2018-05-18T18:48:29.481Z,18.50
2018-05-18T18:50:57.840Z,18.40
2018-05-18T18:53:26.127Z,18.40
2018-05-18T18:55:54.447Z,18.50
2018-05-18T18:58:22.744Z,18.50
2018-05-18T19:00:51.841Z,18.40
2018-05-18T19:03:20.895Z,18.40
2018-05-18T19:05:49.199Z,18.40
2018-05-18T19:08:17.552Z,18.40
2018-05-18T19:10:45.879Z,18.40
2018-05-18T19:13:14.957Z,18.10
2018-05-18T19:15:44.028Z,18.10
2018-05-18T19:18:12.370Z,18.10
2018-05-18T19:20:40.668Z,18.10
2018-05-18T19:23:09.000Z,18.10
2018-05-18T19:25:38.104Z,17.90
2018-05-18T19:28:06.424Z,17.90
2018-05-18T19:30:34.793Z,17.80
2018-05-18T19:33:03.100Z,17.60
2018-05-18T19:35:31.484Z,17.50
2018-05-18T19:38:00.684Z,17.50
2018-05-18T19:40:29.060Z,17.40
2018-05-18T19:42:57.419Z,17.40
2018-05-18T19:45:25.759Z,17.40
2018-05-18T19:47:54.101Z,17.40
2018-05-18T19:50:22.395Z,17.40
2018-05-18T19:52:51.464Z,17.30
2018-05-18T19:55:19.755Z,17.30
2018-05-18T19:57:48.840Z,17.20
2018-05-18T20:00:17.135Z,17.20
2018-05-18T20:02:46.252Z,16.90
2018-05-18T20:05:14.563Z,16.90
2018-05-18T20:07:42.879Z,16.90
2018-05-18T20:10:11.198Z,16.90
2018-05-18T20:12:39.521Z,16.80
2018-05-18T20:15:07.825Z,16.70
2018-05-18T20:17:36.946Z,16.60
2018-05-18T20:20:05.269Z,16.60
2018-05-18T20:22:33.624Z,16.70
2018-05-18T20:25:01.967Z,16.60
2018-05-18T20:27:30.252Z,16.70
2018-05-18T20:29:58.538Z,16.60
2018-05-18T20:32:26.860Z,16.60
2018-05-18T20:34:55.156Z,16.60
2018-05-18T20:37:24.258Z,16.50
2018-05-18T20:39:52.565Z,16.50
2018-05-18T20:42:20.884Z,16.50
2018-05-18T20:44:49.184Z,16.50
2018-05-18T20:47:18.297Z,16.50
2018-05-18T20:49:46.591Z,16.50
2018-05-18T20:52:14.927Z,16.50
2018-05-18T20:54:43.210Z,16.50
2018-05-18T20:57:12.298Z,16.40
2018-05-18T20:59:40.590Z,16.40
2018-05-18T21:02:09.644Z,16.20
2018-05-18T21:04:37.975Z,16.20
2018-05-18T21:07:06.329Z,16.10
2018-05-18T21:09:34.693Z,15.90
2018-05-18T21:12:02.980Z,15.80
2018-05-18T21:14:31.338Z,15.80
2018-05-18T21:16:59.641Z,15.80
2018-05-18T21:19:27.962Z,15.80
2018-05-18T21:21:56.340Z,15.80
2018-05-18T21:24:24.658Z,15.70
2018-05-18T21:26:52.939Z,15.60
2018-05-18T21:29:21.280Z,15.60
2018-05-18T21:31:49.573Z,15.60
2018-05-18T21:34:17.895Z,15.40
2018-05-18T21:36:46.960Z,15.10
2018-05-18T21:39:15.325Z,15.10
2018-05-18T21:41:43.608Z,15.00
2018-05-18T21:44:11.942Z,14.90
2018-05-18T21:46:40.240Z,14.90
2018-05-18T21:49:08.560Z,14.80
2018-05-18T21:51:36.860Z,14.80
2018-05-18T21:54:05.201Z,14.80
2018-05-18T21:56:33.494Z,14.70
2018-05-18T21:59:01.803Z,14.60
2018-05-18T22:01:30.120Z,14.50
2018-05-18T22:03:58.447Z,14.50
2018-05-18T22:06:27.521Z,14.40
2018-05-18T22:08:56.660Z,14.50
2018-05-18T22:11:24.987Z,14.50
2018-05-18T22:13:53.354Z,14.60
2018-05-18T22:16:21.658Z,14.60
2018-05-18T22:18:49.967Z,14.60
2018-05-18T22:21:18.289Z,14.60
2018-05-18T22:23:46.604Z,14.60
2018-05-18T22:26:15.692Z,14.40
2018-05-18T22:28:44.003Z,14.40
2018-05-18T22:31:12.331Z,14.40
2018-05-18T22:33:40.661Z,14.40
2018-05-18T22:36:08.940Z,14.40
2018-05-18T22:38:37.266Z,14.30
2018-05-18T22:41:05.689Z,14.20
2018-05-18T22:43:34.000Z,14.20
2018-05-18T22:46:02.328Z,14.20
2018-05-18T22:48:31.400Z,14.20
2018-05-18T22:50:59.713Z,14.20
2018-05-18T22:53:28.003Z,14.20
2018-05-18T22:55:56.362Z,14.20
2018-05-18T22:58:24.653Z,14.20
2018-05-18T23:00:52.988Z,14.20
2018-05-18T23:03:21.268Z,14.10
2018-05-18T23:05:49.587Z,13.90
2018-05-18T23:08:17.907Z,13.70
2018-05-18T23:10:46.260Z,13.70
2018-05-18T23:13:14.551Z,13.60
2018-05-18T23:15:42.862Z,13.70
2018-05-18T23:18:11.176Z,13.70
2018-05-18T23:20:40.273Z,13.70
2018-05-18T23:23:08.636Z,13.70
2018-05-18T23:25:36.941Z,13.70
2018-05-18T23:28:05.200Z,13.60
2018-05-18T23:30:33.525Z,13.60
2018-05-18T23:33:01.835Z,13.50
2018-05-18T23:35:30.971Z,13.50
2018-05-18T23:37:59.269Z,13.50
2018-05-18T23:40:27.593Z,13.50
2018-05-18T23:42:55.908Z,13.40
2018-05-18T23:45:24.212Z,13.50
2018-05-18T23:47:52.524Z,13.50
2018-05-18T23:50:21.591Z,13.40
2018-05-18T23:52:49.884Z,13.40
2018-05-18T23:55:19.008Z,13.30
2018-05-18T23:57:47.300Z,13.30
